Time;durP1;ratioP1;P1;durP2;ratioP2;P2;SDS_P1;SDS_P2;PMS_P1;PMS_P2;Temp;Humidity;BMP_temperature;BMP_pressure;BME280_temperature;BME280_humidity;BME280_pressure;Samples;Min_cycle;Max_cycle;Signal;HPM_P1;HPM_P2
2022/07/03 00:00:28;;;;;;;6.70;6.03;;;;;;;22.44;100.00;101422.09;2079110;28;20206;-70
2022/07/03 00:01:29;;;;;;;6.83;5.97;;;;;;;22.85;100.00;101495.06;2071961;28;20247;-70
2022/07/03 00:02:29;;;;;;;6.60;5.77;;;;;;;23.60;100.00;101614.41;2072191;28;20189;-70
2022/07/03 00:03:30;;;;;;;6.50;5.80;;;;;;;23.61;100.00;101612.38;2072527;28;20190;-70
2022/07/03 00:04:30;;;;;;;7.50;5.60;;;;;;;23.60;100.00;101613.66;2078306;28;20669;-70
2022/07/03 00:05:31;;;;;;;6.57;5.90;;;;;;;23.60;100.00;101619.31;2074762;28;20217;-70
2022/07/03 00:06:33;;;;;;;6.20;5.60;;;;;;;23.58;100.00;101624.69;2075962;28;20667;-70
2022/07/03 00:07:33;;;;;;;12.83;6.90;;;;;;;22.61;100.00;101476.78;2080464;28;20181;-70
2022/07/03 00:08:34;;;;;;;8.43;6.23;;;;;;;23.57;100.00;101625.97;2080419;28;20239;-70
2022/07/03 00:09:34;;;;;;;6.70;5.70;;;;;;;22.69;100.00;101483.53;2080350;28;20667;-70
2022/07/03 00:10:35;;;;;;;6.50;5.87;;;;;;;22.89;100.00;101521.06;2072375;28;20186;-70
2022/07/03 00:11:35;;;;;;;6.83;5.63;;;;;;;23.35;100.00;101583.28;2074803;28;20196;-70
2022/07/03 00:12:36;;;;;;;6.53;5.53;;;;;;;22.86;100.00;101502.25;2080330;28;20193;-70
2022/07/03 00:13:36;;;;;;;7.13;5.80;;;;;;;22.85;100.00;101514.06;2082373;28;20192;-70
2022/07/03 00:14:37;;;;;;;6.37;5.77;;;;;;;23.51;100.00;101625.13;2082309;28;20196;-70
2022/07/03 00:15:38;;;;;;;6.60;5.87;;;;;;;23.51;100.00;101636.44;2079234;28;20552;-70
2022/07/03 00:16:39;;;;;;;7.33;6.03;;;;;;;23.44;100.00;101625.56;2073450;28;20690;-70
2022/07/03 00:17:39;;;;;;;8.60;6.27;;;;;;;23.35;100.00;101635.00;2073993;28;20615;-70
2022/07/03 00:18:40;;;;;;;7.00;5.37;;;;;;;23.36;100.00;101636.56;2074527;28;20252;-70
2022/07/03 00:19:40;;;;;;;8.80;6.33;;;;;;;22.30;100.00;101462.47;2081405;28;21543;-70
2022/07/03 00:20:49;;;;;;;6.70;6.10;;;;;;;23.39;100.00;101640.44;2081816;28;20220;-70
2022/07/03 00:21:56;;;;;;;6.80;5.83;;;;;;;23.26;100.00;101612.50;2075255;28;20643;-70
2022/07/03 00:23:01;;;;;;;6.93;6.23;;;;;;;23.37;100.00;101640.94;2079811;28;20667;-70
2022/07/03 00:24:15;;;;;;;7.10;6.40;;;;;;;23.33;100.00;101631.13;2075727;28;20193;-70
2022/07/03 00:25:16;;;;;;;7.50;6.17;;;;;;;23.26;100.00;101625.88;2073303;28;20233;-70
2022/07/03 00:26:20;;;;;;;9.07;6.60;;;;;;;23.29;100.00;101630.53;2074022;28;20201;-70
2022/07/03 00:27:23;;;;;;;6.73;6.10;;;;;;;23.29;100.00;101625.66;2077801;28;20196;-70
2022/07/03 00:28:25;;;;;;;7.60;6.00;;;;;;;22.81;100.00;101558.69;2078371;28;20209;-70
2022/07/03 00:29:31;;;;;;;7.57;6.37;;;;;;;23.23;100.00;101615.56;2073920;28;20205;-70
2022/07/03 00:30:33;;;;;;;6.87;6.17;;;;;;;23.30;100.00;101615.91;2073530;28;20154;-70
2022/07/03 00:31:34;;;;;;;9.77;5.90;;;;;;;23.31;100.00;101623.13;2073942;28;20189;-70
2022/07/03 00:32:38;;;;;;;6.40;5.77;;;;;;;23.33;100.00;101614.16;2072702;28;20186;-70
2022/07/03 00:33:41;;;;;;;8.80;5.80;;;;;;;23.37;100.00;101620.34;2073990;28;20211;-70
2022/07/03 00:34:44;;;;;;;6.13;5.53;;;;;;;23.38;100.00;101619.84;2082518;28;20165;-70
2022/07/03 00:35:47;;;;;;;10.13;6.57;;;;;;;23.36;100.00;101625.22;2082047;28;20195;-70
2022/07/03 00:36:48;;;;;;;9.00;6.17;;;;;;;23.23;100.00;101605.00;2075386;28;20651;-70
2022/07/03 00:37:49;;;;;;;7.80;6.00;;;;;;;22.70;100.00;101552.91;2078919;28;20621;-70
2022/07/03 00:38:49;;;;;;;8.07;5.97;;;;;;;23.20;100.00;101630.69;2077134;28;20193;-70
2022/07/03 00:39:50;;;;;;;7.70;5.90;;;;;;;23.12;100.00;101624.66;2077517;28;20553;-70
2022/07/03 00:40:50;;;;;;;6.57;5.97;;;;;;;23.13;100.00;101629.03;2080887;28;20269;-70
2022/07/03 00:42:01;;;;;;;8.03;6.07;;;;;;;23.05;100.00;101630.72;2081310;28;20185;-70
2022/07/03 00:43:03;;;;;;;7.93;6.13;;;;;;;23.03;100.00;101632.50;2073842;28;20272;-70
2022/07/03 00:44:04;;;;;;;8.10;6.10;;;;;;;22.99;100.00;101632.72;2080337;28;20435;-70
2022/07/03 00:45:07;;;;;;;7.97;6.00;;;;;;;22.44;100.00;101564.13;2074135;28;20174;-70
2022/07/03 00:46:09;;;;;;;7.03;5.97;;;;;;;22.96;100.00;101635.72;2074314;28;20190;-70
2022/07/03 00:47:12;;;;;;;8.77;5.80;;;;;;;22.98;100.00;101639.63;2080589;28;20472;-70
2022/07/03 00:48:18;;;;;;;7.00;6.27;;;;;;;22.97;100.00;101645.78;2080953;28;21006;-70
2022/07/03 00:49:22;;;;;;;8.37;6.40;;;;;;;22.96;100.00;101642.16;2073227;28;20459;-70
2022/07/03 00:50:34;;;;;;;7.10;6.17;;;;;;;22.96;100.00;101642.16;2073782;28;20623;-70
2022/07/03 00:51:40;;;;;;;6.93;6.10;;;;;;;22.91;100.00;101639.25;2073973;28;20243;-70
2022/07/03 00:52:47;;;;;;;8.37;6.07;;;;;;;22.59;100.00;101589.50;2073330;28;20205;-70
2022/07/03 00:53:50;;;;;;;6.73;5.93;;;;;;;22.13;100.00;101501.78;2078590;28;20201;-70
2022/07/03 00:55:00;;;;;;;6.90;6.20;;;;;;;22.97;100.00;101645.78;2081208;28;20189;-70
2022/07/03 00:56:04;;;;;;;6.97;6.00;;;;;;;22.98;100.00;101619.84;2081148;28;20195;-70
2022/07/03 00:57:12;;;;;;;9.37;6.77;;;;;;;22.93;100.00;101619.78;2077992;28;20570;-70
2022/07/03 00:58:16;;;;;;;8.80;6.20;;;;;;;22.99;100.00;101623.44;2073930;28;20963;-70
2022/07/03 00:59:17;;;;;;;9.73;6.20;;;;;;;23.00;100.00;101628.63;2072932;28;20833;-70
2022/07/03 01:00:18;;;;;;;7.20;6.17;;;;;;;22.76;100.00;101590.50;2073449;28;20268;-70
2022/07/03 01:01:19;;;;;;;8.03;6.07;;;;;;;22.99;100.00;101626.28;2073979;28;20678;-70
2022/07/03 01:02:34;;;;;;;8.80;6.10;;;;;;;23.01;100.00;101616.03;2082280;28;20208;-70
2022/07/03 01:03:43;;;;;;;6.97;5.93;;;;;;;22.95;100.00;101603.88;2073691;28;20169;-70
2022/07/03 01:05:01;;;;;;;6.43;5.70;;;;;;;23.02;100.00;101617.56;2072945;28;20174;-70
2022/07/03 01:06:10;;;;;;;7.07;5.70;;;;;;;22.98;100.00;101608.53;2075706;28;20172;-70
2022/07/03 01:07:34;;;;;;;8.33;6.40;;;;;;;23.01;100.00;101612.41;2080881;28;20193;-70
2022/07/03 01:08:45;;;;;;;7.03;6.33;;;;;;;23.03;100.00;101607.06;2052404;28;20218;-70
2022/07/03 01:10:15;;;;;;;10.10;6.33;;;;;;;23.00;100.00;101608.81;2073528;28;20185;-70
2022/07/03 01:11:24;;;;;;;7.57;6.03;;;;;;;23.01;100.00;101603.94;2062634;28;20218;-70
2022/07/03 01:12:55;;;;;;;10.20;6.30;;;;;;;22.99;100.00;101601.63;2064746;28;20197;-70
2022/07/03 01:14:40;;;;;;;9.97;6.27;;;;;;;22.99;100.00;101600.84;2059935;28;20220;-70
2022/07/03 01:15:43;;;;;;;7.60;6.20;;;;;;;22.99;100.00;101600.84;2063464;28;20360;-70
2022/07/03 01:17:24;;;;;;;9.97;6.07;;;;;;;22.96;100.00;101598.97;2064648;28;20428;-70
2022/07/03 01:18:36;;;;;;;6.73;5.90;;;;;;;22.95;100.00;101591.78;2064471;28;21099;-70
2022/07/03 01:19:44;;;;;;;6.07;5.43;;;;;;;22.87;100.00;101596.31;2080746;28;20420;-70
2022/07/03 01:20:51;;;;;;;8.43;5.83;;;;;;;22.84;100.00;101600.91;2081086;28;20447;-70
2022/07/03 01:22:11;;;;;;;7.33;6.00;;;;;;;22.76;100.00;101601.78;2074313;28;20452;-70
2022/07/03 01:23:31;;;;;;;8.77;6.23;;;;;;;22.22;100.00;101529.88;2073165;28;20420;-70
2022/07/03 01:24:39;;;;;;;7.13;6.50;;;;;;;22.72;100.00;101613.31;2073698;28;20405;-70
2022/07/03 01:25:49;;;;;;;8.17;6.40;;;;;;;22.72;100.00;101613.31;2073428;28;20555;-70
2022/07/03 01:26:57;;;;;;;7.73;6.47;;;;;;;21.93;100.00;101490.44;2080938;28;20411;-70
2022/07/03 01:28:15;;;;;;;6.97;6.27;;;;;;;22.50;100.00;101576.28;2073485;28;20409;-70
2022/07/03 01:29:25;;;;;;;7.57;6.40;;;;;;;22.68;100.00;101595.03;2075293;28;20435;-70
2022/07/03 01:30:31;;;;;;;7.80;7.00;;;;;;;22.71;100.00;101600.47;2079520;28;20411;-70
2022/07/03 01:31:33;;;;;;;7.90;6.67;;;;;;;22.72;100.00;101601.25;2073802;28;20483;-70
2022/07/03 01:32:43;;;;;;;7.27;6.67;;;;;;;22.69;100.00;101599.41;2079232;28;20412;-70
2022/07/03 01:33:46;;;;;;;7.80;6.80;;;;;;;22.64;100.00;101594.44;2073732;28;20723;-70
2022/07/03 01:34:52;;;;;;;9.10;6.80;;;;;;;22.57;100.00;101597.69;2073677;28;20941;-70
2022/07/03 01:36:01;;;;;;;7.70;6.43;;;;;;;22.44;100.00;101606.50;2072945;28;20436;-70
2022/07/03 01:37:03;;;;;;;7.53;6.80;;;;;;;21.78;100.00;101500.19;2072465;28;20429;-70
2022/07/03 01:38:06;;;;;;;8.43;6.83;;;;;;;22.45;100.00;101602.38;2073574;28;20468;-70
2022/07/03 01:39:11;;;;;;;7.40;6.60;;;;;;;22.48;100.00;101609.09;2080474;28;20501;-70
2022/07/03 01:40:14;;;;;;;9.43;6.53;;;;;;;22.49;100.00;101607.84;2075873;28;20771;-70
2022/07/03 01:41:14;;;;;;;8.77;6.33;;;;;;;22.26;100.00;101574.84;2075202;28;20551;-70
2022/07/03 01:42:16;;;;;;;8.80;6.63;;;;;;;22.32;100.00;101579.31;2073406;28;20571;-70
2022/07/03 01:43:21;;;;;;;9.87;7.03;;;;;;;22.49;100.00;101600.16;2072013;28;20189;-70
2022/07/03 01:44:26;;;;;;;8.83;7.10;;;;;;;22.51;100.00;101602.50;2078461;28;20510;-70
2022/07/03 01:45:30;;;;;;;7.73;6.93;;;;;;;22.16;100.00;101562.13;2073280;28;21856;-70
2022/07/03 01:46:32;;;;;;;8.70;7.10;;;;;;;22.52;100.00;101610.44;2075575;28;20789;-70
2022/07/03 01:47:34;;;;;;;8.27;6.97;;;;;;;22.47;100.00;101611.16;2080614;28;20846;-70
2022/07/03 01:48:35;;;;;;;7.93;7.10;;;;;;;22.49;100.00;101605.78;2081605;28;20485;-70
2022/07/03 01:49:40;;;;;;;10.97;7.30;;;;;;;22.51;100.00;101608.91;2081828;28;20827;-70
2022/07/03 01:50:42;;;;;;;7.83;7.03;;;;;;;22.49;100.00;101616.31;2072986;28;20690;-70
2022/07/03 01:51:43;;;;;;;8.40;7.10;;;;;;;22.47;100.00;101616.03;2080549;28;20436;-70
2022/07/03 01:52:47;;;;;;;8.07;6.93;;;;;;;22.46;100.00;101643.50;2074895;28;20973;-70
2022/07/03 01:53:49;;;;;;;9.40;7.27;;;;;;;22.46;100.00;101617.31;2077740;28;20272;-70
2022/07/03 01:54:51;;;;;;;7.90;7.10;;;;;;;22.48;100.00;101620.41;2081605;28;20473;-70
2022/07/03 01:55:55;;;;;;;8.33;7.07;;;;;;;22.50;100.00;101615.81;2081281;28;20935;-70
2022/07/03 01:56:58;;;;;;;7.20;6.50;;;;;;;22.53;100.00;101620.50;2081591;28;20447;-70
2022/07/03 01:58:00;;;;;;;8.23;6.57;;;;;;;22.58;100.00;101616.19;2078643;28;20529;-70
2022/07/03 01:59:01;;;;;;;7.97;6.53;;;;;;;22.60;100.00;101616.47;2073169;28;20425;-70
2022/07/03 02:00:02;;;;;;;9.20;7.00;;;;;;;22.59;100.00;101612.09;2073200;28;20420;-70
2022/07/03 02:01:15;;;;;;;7.43;6.40;;;;;;;22.67;100.00;101616.06;2073002;28;20449;-70
2022/07/03 02:02:32;;;;;;;11.77;6.80;;;;;;;22.65;100.00;101607.28;2081937;28;20412;-70
2022/07/03 02:03:35;;;;;;;7.23;6.47;;;;;;;22.68;100.00;101618.38;2080766;28;20591;-70
2022/07/03 02:04:41;;;;;;;8.93;7.07;;;;;;;22.66;100.00;101618.09;2072671;28;20429;-70
2022/07/03 02:05:44;;;;;;;11.73;6.90;;;;;;;22.31;100.00;101574.16;2073365;28;20393;-70
2022/07/03 02:07:08;;;;;;;8.83;6.97;;;;;;;21.70;100.00;101490.56;2081501;28;20469;-70
2022/07/03 02:08:12;;;;;;;7.97;6.90;;;;;;;22.41;100.00;101617.97;2080738;28;20941;-70
2022/07/03 02:09:17;;;;;;;10.33;6.87;;;;;;;22.39;100.00;101617.66;2080329;28;20514;-70
2022/07/03 02:10:27;;;;;;;7.00;6.30;;;;;;;22.22;100.00;101614.56;2073400;28;20536;-70
2022/07/03 02:11:32;;;;;;;8.13;7.00;;;;;;;22.20;100.00;101622.75;2075707;28;20401;-70
2022/07/03 02:12:57;;;;;;;8.37;7.00;;;;;;;22.19;100.00;101626.84;2081087;28;20420;-70
2022/07/03 02:14:07;;;;;;;7.30;6.40;;;;;;;22.15;100.00;101625.50;2074374;28;20440;-70
2022/07/03 02:15:09;;;;;;;7.33;6.57;;;;;;;22.17;100.00;101631.44;2080646;28;20423;-70
2022/07/03 02:16:13;;;;;;;8.23;7.20;;;;;;;22.13;100.00;101634.47;2080275;28;20837;-70
2022/07/03 02:17:17;;;;;;;7.60;6.90;;;;;;;22.13;100.00;101628.81;2080993;28;20509;-70
2022/07/03 02:18:38;;;;;;;9.80;6.83;;;;;;;22.04;100.00;101631.72;2081721;28;20424;-70
2022/07/03 02:19:38;;;;;;;7.43;6.73;;;;;;;21.99;100.00;101632.41;2079364;28;20497;-70
2022/07/03 02:20:45;;;;;;;11.23;7.30;;;;;;;21.95;100.00;101631.81;2080516;28;20501;-70
2022/07/03 02:21:54;;;;;;;8.20;6.90;;;;;;;21.38;100.00;101553.53;2081584;28;20207;-70
2022/07/03 02:23:01;;;;;;;8.77;6.80;;;;;;;21.91;100.00;101633.28;2081133;28;20898;-70
2022/07/03 02:24:21;;;;;;;9.53;6.93;;;;;;;21.87;100.00;101635.53;2081562;28;20438;-70
2022/07/03 02:25:23;;;;;;;10.13;6.93;;;;;;;21.24;100.00;101543.81;2080200;28;20913;-70
2022/07/03 02:26:29;;;;;;;7.50;6.80;;;;;;;21.90;100.00;101626.88;2072331;28;20509;-70
2022/07/03 02:27:38;;;;;;;8.03;6.90;;;;;;;21.91;100.00;101641.75;2073362;28;20496;-70
2022/07/03 02:28:58;;;;;;;7.53;6.37;;;;;;;21.91;100.00;101639.69;2073525;28;20465;-70
2022/07/03 02:30:03;;;;;;;13.17;7.50;;;;;;;21.93;100.00;101637.19;2073179;28;20424;-70
2022/07/03 02:31:07;;;;;;;8.70;7.10;;;;;;;21.97;100.00;101639.81;2080598;28;20517;-70
2022/07/03 02:32:13;;;;;;;8.90;7.13;;;;;;;21.93;100.00;101636.41;2081521;28;20428;-70
2022/07/03 02:33:20;;;;;;;8.07;7.20;;;;;;;21.92;100.00;101634.84;2072630;28;20714;-70
2022/07/03 02:34:23;;;;;;;7.97;7.03;;;;;;;21.83;100.00;101624.44;2073502;28;20511;-70
2022/07/03 02:35:26;;;;;;;7.97;7.17;;;;;;;21.93;100.00;101642.03;2072147;28;20441;-70
2022/07/03 02:36:28;;;;;;;11.77;7.17;;;;;;;21.94;100.00;101643.59;2079856;28;20550;-70
2022/07/03 02:37:33;;;;;;;7.83;6.67;;;;;;;21.92;100.00;101651.78;2074198;28;20527;-70
2022/07/03 02:38:33;;;;;;;8.00;7.20;;;;;;;21.96;100.00;101649.56;2073234;28;20857;-70
2022/07/03 02:40:02;;;;;;;10.53;7.20;;;;;;;21.27;100.00;101556.94;2072111;28;20448;-70
2022/07/03 02:41:08;;;;;;;8.40;7.20;;;;;;;21.92;100.00;101649.75;2079096;28;20736;-70
2022/07/03 02:42:22;;;;;;;8.67;7.10;;;;;;;21.98;100.00;101647.78;2074698;28;20452;-70
2022/07/03 02:43:42;;;;;;;7.77;7.07;;;;;;;21.98;100.00;101647.78;2079514;28;20450;-70
2022/07/03 02:44:45;;;;;;;8.70;6.90;;;;;;;22.02;100.00;101651.22;2073395;28;20404;-70
2022/07/03 02:45:56;;;;;;;7.83;6.40;;;;;;;22.08;100.00;101651.28;2072820;28;20428;-70
2022/07/03 02:47:11;;;;;;;8.57;6.27;;;;;;;22.11;100.00;101653.16;2073384;28;20416;-70
2022/07/03 02:48:22;;;;;;;8.17;6.67;;;;;;;21.95;100.00;101616.94;2072403;28;20392;-70
2022/07/03 02:49:41;;;;;;;7.63;6.37;;;;;;;22.19;100.00;101654.31;2072953;28;20988;-70
2022/07/03 02:50:47;;;;;;;8.40;6.67;;;;;;;21.41;100.00;101528.00;2072559;28;21130;-70
2022/07/03 02:52:01;;;;;;;8.47;6.50;;;;;;;22.28;100.00;101654.19;2073228;28;20420;-70
2022/07/03 02:53:15;;;;;;;7.60;6.90;;;;;;;22.25;100.00;101639.00;2078763;28;20894;-70
2022/07/03 02:54:15;;;;;;;8.90;6.67;;;;;;;22.39;100.00;101655.16;2075465;28;20416;-70
2022/07/03 02:55:31;;;;;;;7.07;6.30;;;;;;;22.40;100.00;101656.72;2079718;28;20502;-70
2022/07/03 02:56:50;;;;;;;8.30;6.97;;;;;;;22.44;100.00;101656.50;2072926;28;20257;-70
2022/07/03 02:58:05;;;;;;;8.60;6.07;;;;;;;21.55;100.00;101513.09;2072873;28;20472;-70
2022/07/03 02:59:17;;;;;;;9.30;7.00;;;;;;;22.49;100.00;101655.84;2071968;28;20447;-70
2022/07/03 03:00:18;;;;;;;7.43;6.50;;;;;;;22.12;100.00;101596.22;2072968;28;20444;-70
2022/07/03 03:01:24;;;;;;;7.73;6.80;;;;;;;22.54;100.00;101666.47;2072306;28;20443;-70
2022/07/03 03:02:49;;;;;;;7.43;6.67;;;;;;;22.52;100.00;101663.38;2075407;28;20192;-70
2022/07/03 03:04:16;;;;;;;9.43;7.13;;;;;;;22.52;100.00;101669.00;2081040;28;20478;-70
2022/07/03 03:05:25;;;;;;;10.53;7.10;;;;;;;22.53;100.00;101664.91;2073760;28;20987;-70
2022/07/03 03:06:27;;;;;;;8.97;6.93;;;;;;;22.51;100.00;101667.47;2073136;28;20606;-70
2022/07/03 03:07:40;;;;;;;13.83;7.07;;;;;;;22.51;100.00;101659.75;2079943;28;20444;-70
2022/07/03 03:08:50;;;;;;;11.40;7.23;;;;;;;22.32;100.00;101624.47;2081204;28;20451;-70
2022/07/03 03:09:50;;;;;;;10.27;7.30;;;;;;;22.64;100.00;101670.72;2072043;28;20439;-70
2022/07/03 03:10:54;;;;;;;9.33;7.27;;;;;;;22.58;100.00;101662.19;2072486;28;20475;-70
2022/07/03 03:12:01;;;;;;;8.00;7.20;;;;;;;22.65;100.00;101666.63;2078724;28;20203;-70
2022/07/03 03:13:11;;;;;;;10.07;7.97;;;;;;;22.65;100.00;101675.09;2079508;28;20781;-70
2022/07/03 03:14:14;;;;;;;12.60;8.27;;;;;;;22.70;100.00;101668.75;2081180;28;20511;-70
2022/07/03 03:15:15;;;;;;;8.87;7.53;;;;;;;22.65;100.00;101664.59;2080809;28;20983;-70
2022/07/03 03:16:16;;;;;;;8.90;7.53;;;;;;;22.75;100.00;101676.53;2076829;28;20830;-70
2022/07/03 03:17:24;;;;;;;12.53;8.33;;;;;;;22.60;100.00;101653.19;2072686;28;20243;-70
2022/07/03 03:18:28;;;;;;;10.17;8.03;;;;;;;22.74;100.00;101684.25;2072813;28;20232;-70
2022/07/03 03:19:29;;;;;;;8.73;7.83;;;;;;;22.14;100.00;101581.59;2073495;28;20428;-70
2022/07/03 03:20:32;;;;;;;11.13;7.40;;;;;;;22.78;100.00;101661.44;2079439;28;20474;-70
2022/07/03 03:21:42;;;;;;;8.97;7.23;;;;;;;22.84;100.00;101662.28;2080212;28;20415;-70
2022/07/03 03:23:19;;;;;;;12.10;7.90;;;;;;;22.89;100.00;101670.06;2072261;28;20412;-70
2022/07/03 03:24:22;;;;;;;10.80;7.87;;;;;;;22.90;100.00;101663.16;2077247;28;20443;-70
2022/07/03 03:25:22;;;;;;;8.20;7.40;;;;;;;22.90;100.00;101666.75;2076975;28;20487;-70
2022/07/03 03:26:28;;;;;;;9.13;7.40;;;;;;;22.85;100.00;101658.97;2072804;28;20459;-70
2022/07/03 03:27:28;;;;;;;8.83;7.47;;;;;;;22.77;100.00;101663.47;2072634;28;20166;-70
2022/07/03 03:28:29;;;;;;;9.00;7.47;;;;;;;22.67;100.00;101641.50;2073534;28;20412;-70
2022/07/03 03:29:30;;;;;;;10.07;7.60;;;;;;;22.75;100.00;101668.84;2081054;28;20208;-70
2022/07/03 03:30:31;;;;;;;8.70;7.63;;;;;;;22.64;100.00;101653.78;2072226;28;20439;-70
2022/07/03 03:31:32;;;;;;;13.73;8.13;;;;;;;22.80;100.00;101670.19;2078475;28;20203;-70
2022/07/03 03:32:35;;;;;;;9.87;7.77;;;;;;;22.82;100.00;101662.78;2080136;28;20180;-70
2022/07/03 03:33:43;;;;;;;9.30;7.33;;;;;;;22.93;100.00;101665.00;2075253;28;20716;-70
2022/07/03 03:34:45;;;;;;;9.30;7.70;;;;;;;22.96;100.00;101664.00;2072512;28;20189;-70
2022/07/03 03:35:46;;;;;;;9.17;7.30;;;;;;;23.01;100.00;101666.91;2076646;28;20663;-70
2022/07/03 03:36:46;;;;;;;12.10;7.87;;;;;;;22.91;100.00;101639.25;2080192;28;20564;-70
2022/07/03 03:37:48;;;;;;;11.30;7.87;;;;;;;22.97;100.00;101637.31;2079760;28;20205;-70
2022/07/03 03:38:49;;;;;;;12.70;7.87;;;;;;;22.93;100.00;101625.44;2080005;28;20185;-70
2022/07/03 03:39:49;;;;;;;8.83;7.60;;;;;;;22.88;100.00;101626.88;2072025;28;20190;-70
2022/07/03 03:40:51;;;;;;;10.47;7.70;;;;;;;23.21;100.00;101663.34;2080115;28;20633;-70
2022/07/03 03:41:52;;;;;;;10.13;7.40;;;;;;;23.26;100.00;101654.16;2072884;28;20204;-70
2022/07/03 03:42:53;;;;;;;9.53;7.33;;;;;;;23.29;100.00;101658.81;2077789;28;20185;-70
2022/07/03 03:43:53;;;;;;;9.10;7.20;;;;;;;22.99;100.00;101614.97;2079964;28;20643;-70
2022/07/03 03:44:53;;;;;;;8.70;7.37;;;;;;;23.36;100.00;101656.34;2076404;28;20252;-70
2022/07/03 03:45:54;;;;;;;13.43;7.30;;;;;;;23.38;100.00;101658.69;2072449;28;20737;-70
2022/07/03 03:46:55;;;;;;;10.03;7.17;;;;;;;22.69;100.00;101540.84;2073560;28;20177;-70
2022/07/03 03:47:57;;;;;;;7.60;6.77;;;;;;;23.46;100.00;101660.59;2079841;28;20196;-70
2022/07/03 03:48:57;;;;;;;9.37;7.50;;;;;;;22.65;100.00;101540.28;2072964;28;20432;-70
2022/07/03 03:49:59;;;;;;;17.97;7.70;;;;;;;22.98;100.00;101579.50;2072655;28;20456;-70
2022/07/03 03:51:01;;;;;;;17.83;7.50;;;;;;;23.58;100.00;101655.81;2078840;28;20239;-70
2022/07/03 03:52:02;;;;;;;9.07;6.37;;;;;;;22.78;100.00;101532.19;2075086;28;20499;-70
2022/07/03 03:53:03;;;;;;;12.80;7.40;;;;;;;23.60;100.00;101645.53;2075540;28;20436;-70
2022/07/03 03:54:04;;;;;;;8.17;7.10;;;;;;;23.58;100.00;101655.81;2077211;28;20461;-70
2022/07/03 03:55:05;;;;;;;9.63;7.27;;;;;;;23.59;100.00;101651.72;2071831;28;20257;-70
2022/07/03 03:56:08;;;;;;;8.03;7.07;;;;;;;23.59;100.00;101646.06;2076727;28;20833;-70
2022/07/03 03:57:23;;;;;;;8.07;7.20;;;;;;;23.58;100.00;101647.31;2073206;28;20428;-70
2022/07/03 03:58:24;;;;;;;10.53;7.23;;;;;;;23.42;100.00;101628.13;2080778;28;20489;-70
2022/07/03 03:59:24;;;;;;;8.03;7.13;;;;;;;23.21;100.00;101592.66;2080106;28;20419;-70
2022/07/03 04:00:25;;;;;;;7.30;6.60;;;;;;;23.49;100.00;101633.34;2072559;28;20178;-70
2022/07/03 04:01:25;;;;;;;7.57;6.80;;;;;;;23.59;100.00;101648.91;2072500;28;20225;-70
2022/07/03 04:02:26;;;;;;;10.53;7.23;;;;;;;23.61;100.00;101638.63;2072277;28;20197;-70
2022/07/03 04:03:28;;;;;;;7.77;6.67;;;;;;;23.60;100.00;101648.38;2071737;28;20268;-69
2022/07/03 04:04:28;;;;;;;9.00;6.70;;;;;;;23.61;100.00;101640.69;2072323;28;20204;-70
2022/07/03 04:05:29;;;;;;;11.00;6.80;;;;;;;23.57;100.00;101637.28;2072027;28;20880;-70
2022/07/03 04:06:29;;;;;;;7.80;6.73;;;;;;;23.59;100.00;101638.34;2074175;28;20204;-70
2022/07/03 04:07:30;;;;;;;9.57;7.20;;;;;;;23.57;100.00;101643.72;2079401;28;20173;-70
2022/07/03 04:08:32;;;;;;;9.73;6.60;;;;;;;23.56;100.00;101644.22;2072870;28;20178;-70
2022/07/03 04:09:33;;;;;;;9.17;7.33;;;;;;;23.56;100.00;101642.19;2072640;28;20614;-70
2022/07/03 04:10:33;;;;;;;8.07;7.13;;;;;;;23.58;100.00;101644.50;2079279;28;20185;-70
2022/07/03 04:11:34;;;;;;;7.33;6.60;;;;;;;23.46;100.00;101637.16;2077694;28;20646;-70
2022/07/03 04:12:34;;;;;;;9.30;6.80;;;;;;;23.57;100.00;101646.56;2079896;28;20650;-70
2022/07/03 04:13:34;;;;;;;7.63;6.83;;;;;;;23.55;100.00;101645.50;2076850;28;20197;-70
2022/07/03 04:14:35;;;;;;;9.00;7.20;;;;;;;23.46;100.00;101632.28;2071291;28;20185;-70
2022/07/03 04:15:35;;;;;;;9.97;7.63;;;;;;;23.58;100.00;101655.81;2073740;28;20184;-70
2022/07/03 04:16:36;;;;;;;7.87;7.07;;;;;;;23.31;100.00;101616.66;2079883;28;20562;-70
2022/07/03 04:17:36;;;;;;;10.50;7.13;;;;;;;23.58;100.00;101659.44;2080715;28;20678;-70
2022/07/03 04:18:37;;;;;;;9.40;6.93;;;;;;;23.58;100.00;101652.97;2080052;28;20204;-70
2022/07/03 04:19:38;;;;;;;8.93;7.17;;;;;;;23.57;100.00;101651.44;2081481;28;20193;-70
2022/07/03 04:20:39;;;;;;;8.27;7.23;;;;;;;23.60;100.00;101653.28;2082560;28;20207;-70
2022/07/03 04:21:39;;;;;;;9.90;7.10;;;;;;;23.60;100.00;101651.22;2072303;28;20196;-70
2022/07/03 04:22:40;;;;;;;9.07;7.07;;;;;;;23.61;100.00;101652.00;2074841;28;20231;-70
2022/07/03 04:23:40;;;;;;;9.70;7.60;;;;;;;23.58;100.00;101645.28;2080503;28;20249;-70
2022/07/03 04:24:41;;;;;;;8.17;7.30;;;;;;;23.66;100.00;101652.06;2079779;28;20562;-70
2022/07/03 04:25:41;;;;;;;8.00;6.40;;;;;;;23.64;100.00;101651.78;2071519;28;20236;-70
2022/07/03 04:26:42;;;;;;;8.13;6.67;;;;;;;23.59;100.00;101648.91;2080364;28;20192;-70
2022/07/03 04:27:42;;;;;;;8.43;7.03;;;;;;;23.56;100.00;101656.34;2073273;28;20181;-70
2022/07/03 04:28:43;;;;;;;14.23;7.40;;;;;;;23.56;100.00;101667.66;2072507;28;20220;-70
2022/07/03 04:29:44;;;;;;;7.87;7.07;;;;;;;23.31;100.00;101622.31;2075991;28;20216;-70
2022/07/03 04:30:44;;;;;;;9.80;6.80;;;;;;;23.38;100.00;101633.22;2076229;28;20197;-70
2022/07/03 04:31:44;;;;;;;8.93;6.70;;;;;;;23.55;100.00;101666.06;2075404;28;20264;-70
2022/07/03 04:32:46;;;;;;;9.30;7.20;;;;;;;23.50;100.00;101663.94;2078860;28;20181;-70
2022/07/03 04:33:46;;;;;;;7.80;6.93;;;;;;;23.44;100.00;101670.84;2072236;28;20182;-70
2022/07/03 04:34:47;;;;;;;11.17;7.47;;;;;;;23.39;100.00;101666.66;2080992;28;20173;-70
2022/07/03 04:35:47;;;;;;;9.57;7.23;;;;;;;23.40;100.00;101670.28;2072549;28;20182;-70
2022/07/03 04:36:49;;;;;;;9.30;7.37;;;;;;;23.36;100.00;101664.84;2071312;28;20718;-70
2022/07/03 04:37:49;;;;;;;10.40;7.83;;;;;;;23.38;100.00;101670.75;2070902;28;20227;-70
2022/07/03 04:38:50;;;;;;;9.23;7.30;;;;;;;22.62;100.00;101541.25;2075577;28;20201;-70
2022/07/03 04:39:50;;;;;;;11.27;7.43;;;;;;;23.51;100.00;101665.53;2077595;28;20323;-70
2022/07/03 04:40:50;;;;;;;8.77;7.37;;;;;;;23.53;100.00;101662.97;2076577;28;20644;-70
2022/07/03 04:41:51;;;;;;;9.33;7.37;;;;;;;23.57;100.00;101662.75;2072240;28;20189;-70
2022/07/03 04:42:52;;;;;;;11.03;7.80;;;;;;;23.56;100.00;101669.69;2071955;28;20174;-70
2022/07/03 04:43:52;;;;;;;15.70;7.70;;;;;;;23.60;100.00;101668.19;2076455;28;20662;-70
2022/07/03 04:44:53;;;;;;;14.93;7.80;;;;;;;23.62;100.00;101662.03;2080522;28;20638;-70
2022/07/03 04:45:53;;;;;;;9.30;7.70;;;;;;;22.60;100.00;101524.03;2075179;28;20630;-70
2022/07/03 04:46:54;;;;;;;8.33;7.53;;;;;;;23.51;100.00;101659.09;2071691;28;20228;-70
2022/07/03 04:47:54;;;;;;;9.83;7.67;;;;;;;23.57;100.00;101674.84;2075010;28;20282;-70
2022/07/03 04:48:55;;;;;;;11.30;7.90;;;;;;;23.60;100.00;101661.75;2077829;28;20177;-70
2022/07/03 04:49:55;;;;;;;9.00;7.53;;;;;;;23.60;100.00;101673.84;2073052;28;20569;-70
2022/07/03 04:50:57;;;;;;;9.60;7.50;;;;;;;23.64;100.00;101670.81;2080366;28;20185;-70
2022/07/03 04:51:57;;;;;;;9.00;7.60;;;;;;;23.70;100.00;101666.00;2072632;28;20521;-70
2022/07/03 04:52:58;;;;;;;8.50;7.50;;;;;;;23.77;100.00;101665.53;2071723;28;20258;-70
2022/07/03 04:53:58;;;;;;;8.67;7.77;;;;;;;23.76;100.00;101670.44;2077980;28;20205;-70
2022/07/03 04:54:59;;;;;;;9.53;7.43;;;;;;;23.75;100.00;101663.22;2080663;28;20185;-70
2022/07/03 04:55:59;;;;;;;7.93;7.13;;;;;;;23.83;100.00;101663.53;2080266;28;20201;-70
2022/07/03 04:57:00;;;;;;;9.73;7.67;;;;;;;23.91;100.00;101664.69;2077670;28;20169;-70
2022/07/03 04:58:00;;;;;;;8.30;7.60;;;;;;;23.06;100.00;101541.81;2070944;28;20205;-70
2022/07/03 04:59:01;;;;;;;8.60;7.70;;;;;;;23.19;100.00;101547.13;2072586;28;20181;-70